Time;durP1;ratioP1;P1;durP2;ratioP2;P2;SDS_P1;SDS_P2;PMS_P1;PMS_P2;Temp;Humidity;BMP_temperature;BMP_pressure;BME280_temperature;BME280_humidity;BME280_pressure;Samples;Min_cycle;Max_cycle;Signal;HPM_P1;HPM_P2
2023/10/16 00:03:01;;;;;;;6.30;4.17;;;;;;;8.19;58.58;99463.38;6660832;29;20203;-87
2023/10/16 00:10:11;;;;;;;4.40;3.40;;;;;;;8.13;57.65;99462.22;6649888;29;20243;-87
2023/10/16 00:13:41;;;;;;;5.20;2.80;;;;;;;8.26;58.39;99459.84;6737821;29;20218;-87
2023/10/16 00:17:08;;;;;;;3.87;3.03;;;;;;;8.30;58.51;99460.34;6774098;28;20220;-87
2023/10/16 00:20:31;;;;;;;2.60;2.40;;;;;;;8.36;57.86;99460.47;6885811;28;20215;-87
2023/10/16 00:23:54;;;;;;;3.43;2.70;;;;;;;7.64;57.00;99369.44;6896345;28;20684;-87
2023/10/16 01:52:16;;;;;;;4.60;3.40;;;;;;;7.27;59.11;99398.72;6503438;30;20227;-87
2023/10/16 04:08:52;;;;;;;8.23;4.00;;;;;;;6.61;58.77;99349.81;6848973;28;20228;-87
2023/10/16 04:12:58;;;;;;;7.67;3.93;;;;;;;6.54;57.52;99350.66;6898830;28;20252;-86
2023/10/16 04:24:55;;;;;;;3.87;3.50;;;;;;;5.74;58.64;99303.13;6910001;28;20214;-86
2023/10/16 04:28:18;;;;;;;4.00;3.60;;;;;;;5.61;58.71;99219.81;6926331;28;20216;-89
2023/10/16 04:31:45;;;;;;;4.27;3.73;;;;;;;6.23;57.31;99239.81;6916011;28;20203;-87
2023/10/16 05:01:55;;;;;;;11.57;4.73;;;;;;;6.08;59.46;99290.50;6643270;29;20255;-88
2023/10/16 06:16:54;;;;;;;4.90;4.43;;;;;;;6.51;55.90;99254.56;6684034;29;20780;-88
2023/10/16 06:20:21;;;;;;;7.27;4.07;;;;;;;6.54;55.73;99267.63;6722648;29;20702;-89
2023/10/16 06:23:48;;;;;;;3.90;3.60;;;;;;;6.79;55.47;99326.34;6797153;29;20231;-89
2023/10/16 06:36:06;;;;;;;4.63;4.03;;;;;;;6.92;55.41;99317.81;6830923;29;21026;-89
2023/10/16 06:39:35;;;;;;;6.13;5.53;;;;;;;6.47;56.72;99294.22;6821820;29;20298;-86
2023/10/16 06:43:10;;;;;;;6.07;5.47;;;;;;;6.48;56.14;99245.00;6821888;29;20229;-85
2023/10/16 06:46:37;;;;;;;5.77;3.83;;;;;;;6.89;56.49;99335.06;6805994;29;20246;-86
2023/10/16 06:49:58;;;;;;;8.83;4.67;;;;;;;7.22;54.90;99283.06;6819441;29;20292;-85
2023/10/16 06:53:20;;;;;;;7.00;4.33;;;;;;;7.91;54.16;99309.91;6812674;29;20207;-84
2023/10/16 06:56:43;;;;;;;5.13;4.63;;;;;;;8.22;52.38;99246.34;6814570;29;20236;-83
2023/10/16 07:00:08;;;;;;;3.90;3.50;;;;;;;8.87;51.54;99328.09;6811591;29;20213;-83
2023/10/16 07:03:30;;;;;;;4.10;3.80;;;;;;;8.83;51.26;99243.44;6814906;29;20239;-83
2023/10/16 07:06:51;;;;;;;3.47;3.17;;;;;;;9.89;48.44;99269.72;6833789;28;20218;-83
2023/10/16 07:10:13;;;;;;;4.97;3.63;;;;;;;10.11;49.01;99271.47;6938466;28;20224;-83
2023/10/16 07:13:38;;;;;;;4.80;3.13;;;;;;;10.66;47.49;99320.97;6928951;28;20261;-83
2023/10/16 07:17:00;;;;;;;4.27;3.20;;;;;;;11.06;46.12;99320.28;6914732;28;20224;-81
2023/10/16 07:20:27;;;;;;;4.10;3.37;;;;;;;10.49;47.57;99313.31;6928433;28;20251;-81
2023/10/16 07:23:54;;;;;;;5.10;4.00;;;;;;;10.34;48.22;99266.75;6923438;28;20310;-81
2023/10/16 07:27:16;;;;;;;3.63;3.03;;;;;;;11.31;46.68;99286.41;6926544;28;20591;-81
2023/10/16 07:30:42;;;;;;;3.70;3.40;;;;;;;11.66;46.20;99300.78;6925111;28;20230;-82
2023/10/16 07:34:05;;;;;;;6.13;3.13;;;;;;;12.00;45.71;99300.72;6914187;28;20211;-81
2023/10/16 07:37:26;;;;;;;7.73;3.27;;;;;;;11.30;46.41;99278.50;6917484;28;20243;-81
2023/10/16 07:40:51;;;;;;;6.63;4.33;;;;;;;10.73;47.75;99296.75;6916807;28;20343;-82
2023/10/16 07:44:12;;;;;;;6.47;4.40;;;;;;;10.14;50.64;99276.47;6916310;28;20204;-81
2023/10/16 07:47:35;;;;;;;7.20;4.27;;;;;;;11.88;46.12;99294.22;6916464;28;20256;-82
2023/10/16 07:50:57;;;;;;;7.57;4.60;;;;;;;11.41;47.90;99291.47;6910322;28;20227;-81
2023/10/16 07:54:20;;;;;;;7.13;4.37;;;;;;;12.01;46.88;99288.88;6896471;28;20412;-81
2023/10/16 07:57:43;;;;;;;8.03;4.00;;;;;;;12.94;44.54;99292.38;6910361;28;20227;-81
2023/10/16 08:01:17;;;;;;;4.90;4.07;;;;;;;11.62;47.56;99277.91;6918704;28;20572;-81
2023/10/16 08:04:43;;;;;;;3.80;3.50;;;;;;;12.50;46.43;99294.81;6907850;28;20257;-81
2023/10/16 08:08:11;;;;;;;7.63;5.00;;;;;;;12.75;47.02;99253.44;6918921;28;20208;-82
2023/10/16 08:11:33;;;;;;;7.60;4.60;;;;;;;13.39;45.41;99281.53;6915053;28;20213;-81
2023/10/16 08:14:55;;;;;;;4.07;3.77;;;;;;;13.81;43.54;99269.34;6918198;28;20216;-81
2023/10/16 08:18:18;;;;;;;6.03;4.40;;;;;;;13.69;44.64;99290.03;6917076;28;20555;-82
2023/10/16 08:21:42;;;;;;;6.57;4.47;;;;;;;14.04;44.66;99294.88;6914463;28;20248;-80
2023/10/16 08:25:04;;;;;;;6.17;4.47;;;;;;;14.35;43.95;99273.28;6914076;28;20229;-81
2023/10/16 08:28:35;;;;;;;4.70;4.30;;;;;;;14.09;44.46;99259.00;6920878;28;20687;-81
2023/10/16 08:32:43;;;;;;;5.80;3.93;;;;;;;15.91;40.98;99276.47;6919032;28;20216;-82
2023/10/16 08:35:41;;;;;;;5.30;3.97;;;;;;;15.28;43.04;99272.34;6911677;28;20258;-83
2023/10/16 08:39:09;;;;;;;6.30;4.30;;;;;;;17.18;39.28;99275.06;6921665;28;20214;-83
2023/10/16 08:42:30;;;;;;;4.13;3.73;;;;;;;15.83;41.36;99279.50;6917303;28;20701;-81
2023/10/16 08:45:55;;;;;;;4.90;4.23;;;;;;;17.27;39.60;99282.63;6918580;28;20233;-81
2023/10/16 08:49:16;;;;;;;5.97;4.60;;;;;;;17.67;38.04;99275.44;6915506;28;20238;-84
2023/10/16 08:52:39;;;;;;;5.33;4.50;;;;;;;17.75;37.37;99184.25;6906988;28;20286;-82
2023/10/16 08:56:08;;;;;;;5.20;4.70;;;;;;;17.04;39.01;99268.19;6911533;28;20223;-82
2023/10/16 08:59:29;;;;;;;5.40;4.87;;;;;;;16.36;42.21;99285.94;6936623;28;20205;-79
2023/10/16 09:02:52;;;;;;;5.17;4.67;;;;;;;16.80;40.63;99274.66;6938132;28;20691;-80
2023/10/16 09:06:21;;;;;;;4.30;3.87;;;;;;;15.94;41.71;99265.16;6939720;28;20589;-79
2023/10/16 09:09:43;;;;;;;3.47;3.17;;;;;;;16.73;39.87;99287.50;6919796;28;20257;-79
2023/10/16 09:13:15;;;;;;;6.63;3.50;;;;;;;16.99;39.73;99260.69;6885773;28;20210;-80
2023/10/16 09:16:43;;;;;;;4.17;3.47;;;;;;;15.98;41.25;99274.53;6903854;28;20225;-80
2023/10/16 09:20:13;;;;;;;3.40;3.10;;;;;;;16.52;39.25;99193.59;6913762;28;20198;-79
2023/10/16 09:23:37;;;;;;;7.80;3.50;;;;;;;16.04;40.60;99276.34;6911544;28;20185;-79
2023/10/16 09:26:59;;;;;;;2.83;2.63;;;;;;;16.25;38.82;99270.38;6906648;28;20229;-79
2023/10/16 09:30:23;;;;;;;3.23;2.57;;;;;;;15.33;40.46;99258.94;6904514;28;20241;-79
2023/10/16 09:33:44;;;;;;;3.80;2.93;;;;;;;14.10;42.65;99238.97;6914191;28;20299;-80
2023/10/16 09:37:20;;;;;;;2.77;2.40;;;;;;;13.71;43.41;99198.50;6915990;28;20326;-79
2023/10/16 09:40:44;;;;;;;3.27;2.97;;;;;;;14.12;45.12;99264.81;6919505;28;20209;-79
2023/10/16 09:44:22;;;;;;;4.47;3.13;;;;;;;13.93;44.20;99263.00;6913540;28;20597;-80
2023/10/16 09:47:49;;;;;;;4.40;3.33;;;;;;;14.09;44.86;99267.13;6922099;28;20232;-80
2023/10/16 09:51:12;;;;;;;3.80;3.43;;;;;;;13.73;46.11;99264.13;6921983;28;20224;-81
2023/10/16 09:54:35;;;;;;;5.53;3.47;;;;;;;13.66;45.67;99247.91;6919452;28;20217;-80
2023/10/16 09:57:57;;;;;;;3.57;3.00;;;;;;;14.31;44.68;99252.22;6924092;28;20252;-80
2023/10/16 10:01:29;;;;;;;3.17;2.87;;;;;;;14.51;44.31;99242.09;6920167;28;20209;-80
2023/10/16 10:04:59;;;;;;;4.17;2.93;;;;;;;15.07;44.09;99248.28;6928455;28;20671;-81
2023/10/16 10:08:27;;;;;;;5.33;2.70;;;;;;;14.34;43.07;99116.97;6920092;28;20291;-81
2023/10/16 10:12:13;;;;;;;3.77;3.10;;;;;;;15.07;42.55;99232.00;6923014;28;20231;-79
2023/10/16 10:15:36;;;;;;;4.50;3.00;;;;;;;16.56;40.71;99235.63;6917689;28;20229;-82
2023/10/16 10:19:01;;;;;;;4.87;3.00;;;;;;;17.42;38.65;99204.00;6915489;28;20201;-81
2023/10/16 10:22:27;;;;;;;17.73;8.20;;;;;;;16.94;40.10;99222.44;6918121;28;20213;-78
2023/10/16 10:25:48;;;;;;;39.63;16.50;;;;;;;16.74;39.72;99213.75;6920168;28;20226;-80
2023/10/16 10:29:11;;;;;;;46.70;23.13;;;;;;;17.72;38.41;99220.16;6921861;28;20203;-78
2023/10/16 10:32:33;;;;;;;8.93;6.17;;;;;;;17.00;37.46;99220.66;6917708;28;20883;-82
2023/10/16 10:36:29;;;;;;;4.53;3.00;;;;;;;16.66;35.85;99211.41;6914764;28;20582;-79
2023/10/16 10:40:14;;;;;;;34.03;16.57;;;;;;;17.07;38.17;99199.59;6915416;28;20346;-80
2023/10/16 10:43:39;;;;;;;2.90;2.60;;;;;;;16.56;37.66;99194.78;6915705;28;20204;-80
2023/10/16 10:47:04;;;;;;;3.73;2.30;;;;;;;15.55;39.52;99200.38;6915656;28;20230;-80
2023/10/16 10:50:27;;;;;;;2.10;2.00;;;;;;;15.99;38.39;99197.31;6912220;28;20306;-81
2023/10/16 10:53:54;;;;;;;2.40;2.13;;;;;;;15.69;39.22;99201.88;6899589;28;20330;-80
2023/10/16 10:57:22;;;;;;;3.33;2.20;;;;;;;16.27;37.95;99189.38;6907722;28;20232;-78
2023/10/16 11:00:50;;;;;;;2.80;2.40;;;;;;;16.42;36.58;99184.34;6912346;28;20657;-79
2023/10/16 11:04:16;;;;;;;2.17;1.97;;;;;;;17.98;35.33;99176.78;6915635;28;20664;-79
2023/10/16 11:07:45;;;;;;;1.90;1.80;;;;;;;16.65;35.59;99106.28;6900995;28;20366;-80
2023/10/16 11:11:10;;;;;;;3.80;2.40;;;;;;;16.25;37.72;99183.31;6914005;28;20588;-80
2023/10/16 11:14:38;;;;;;;2.00;1.90;;;;;;;15.82;36.43;99180.78;6911496;28;20206;-79
2023/10/16 11:18:05;;;;;;;2.13;2.00;;;;;;;16.06;36.18;99130.88;6914915;28;20216;-79
2023/10/16 11:21:28;;;;;;;2.30;2.10;;;;;;;15.62;38.09;99165.81;6915642;28;20208;-79
2023/10/16 11:24:49;;;;;;;2.80;2.37;;;;;;;17.39;35.28;99166.28;6912217;28;20256;-80
2023/10/16 11:28:17;;;;;;;2.20;2.00;;;;;;;17.54;36.44;99143.97;6914133;28;20269;-79
2023/10/16 11:31:41;;;;;;;2.20;2.00;;;;;;;18.11;34.53;99146.47;6912583;28;20224;-79
2023/10/16 11:35:13;;;;;;;2.20;2.10;;;;;;;16.57;36.39;99135.75;6913796;28;20284;-80
2023/10/16 11:38:34;;;;;;;3.90;2.53;;;;;;;16.16;37.37;99125.69;6920469;28;20256;-79
2023/10/16 11:41:58;;;;;;;2.13;1.93;;;;;;;17.31;36.93;99120.31;6906917;28;20251;-79
2023/10/16 11:45:20;;;;;;;3.20;1.93;;;;;;;15.87;38.72;99117.56;6903745;28;20237;-79
2023/10/16 11:48:49;;;;;;;2.60;2.20;;;;;;;16.75;35.92;99094.78;6910823;28;20200;-80
2023/10/16 11:52:19;;;;;;;2.53;2.30;;;;;;;17.12;34.97;99102.47;6910731;28;20277;-80
2023/10/16 11:55:42;;;;;;;3.00;2.20;;;;;;;16.79;36.17;99093.22;6912791;28;20230;-79
2023/10/16 11:59:09;;;;;;;3.53;2.20;;;;;;;15.70;38.19;99097.53;6911682;28;20203;-79
2023/10/16 12:02:30;;;;;;;2.27;2.10;;;;;;;15.59;39.04;99103.75;6902111;28;20254;-79
2023/10/16 12:05:55;;;;;;;3.13;2.77;;;;;;;17.47;35.78;99088.75;6906941;28;20230;-80
2023/10/16 12:09:19;;;;;;;4.33;2.40;;;;;;;16.76;35.86;99085.56;6912434;28;20234;-79
2023/10/16 12:12:40;;;;;;;2.60;2.40;;;;;;;16.62;36.04;99081.38;6912571;28;20237;-79
2023/10/16 12:16:04;;;;;;;5.97;2.57;;;;;;;15.88;37.52;99079.28;6912329;28;20234;-80
2023/10/16 12:19:26;;;;;;;3.73;2.30;;;;;;;16.82;36.60;99069.06;6912487;28;20211;-80
2023/10/16 12:22:49;;;;;;;2.40;2.20;;;;;;;17.64;35.21;99067.84;6912129;28;20293;-80
2023/10/16 12:26:11;;;;;;;2.70;2.27;;;;;;;16.11;35.35;99052.09;6914341;28;20230;-80
2023/10/16 12:29:33;;;;;;;2.67;2.23;;;;;;;17.59;34.32;99037.75;6914480;28;20243;-80
2023/10/16 12:32:55;;;;;;;2.50;2.30;;;;;;;16.48;36.11;99050.88;6913842;28;20439;-80
2023/10/16 12:36:18;;;;;;;3.13;2.27;;;;;;;17.57;36.21;99042.63;6914157;28;20239;-80
2023/10/16 12:39:46;;;;;;;2.73;2.40;;;;;;;18.37;34.21;99036.69;6914846;28;20733;-80
2023/10/16 12:43:08;;;;;;;2.33;2.20;;;;;;;18.92;33.20;99017.56;6913138;28;20203;-80
2023/10/16 12:46:31;;;;;;;2.87;2.07;;;;;;;18.75;32.82;98997.66;6917169;28;20238;-80
2023/10/16 12:49:53;;;;;;;2.60;2.33;;;;;;;17.97;32.42;99026.97;6911403;28;20233;-80
2023/10/16 12:53:15;;;;;;;3.60;2.43;;;;;;;17.30;33.38;99019.69;6912049;28;20196;-80
2023/10/16 12:56:38;;;;;;;2.43;2.10;;;;;;;18.34;32.95;98993.50;6912201;28;20234;-81
2023/10/16 13:00:00;;;;;;;2.73;2.40;;;;;;;17.31;34.50;99021.34;6913050;28;20335;-81
2023/10/16 13:03:22;;;;;;;3.03;2.23;;;;;;;17.12;34.83;99008.97;6904189;28;20237;-80
2023/10/16 13:06:44;;;;;;;2.70;2.17;;;;;;;17.55;33.21;98995.66;6903464;28;20274;-80
2023/10/16 13:10:08;;;;;;;2.07;1.87;;;;;;;17.06;33.46;99009.94;6917602;28;20215;-81
2023/10/16 13:13:31;;;;;;;1.87;1.60;;;;;;;16.79;33.25;98996.03;6917354;28;20221;-80
2023/10/16 13:16:54;;;;;;;3.77;2.00;;;;;;;16.31;34.45;98991.91;6919675;28;20250;-80
2023/10/16 13:20:17;;;;;;;2.10;2.00;;;;;;;17.58;33.45;98997.91;6924349;28;20206;-81
2023/10/16 13:23:39;;;;;;;2.00;1.70;;;;;;;18.25;32.65;99000.44;6919552;28;20346;-80
2023/10/16 13:27:00;;;;;;;1.90;1.80;;;;;;;18.30;31.53;98986.88;6918759;28;20289;-80
2023/10/16 13:30:23;;;;;;;1.97;1.87;;;;;;;16.81;32.66;98955.75;6919038;28;20245;-80
2023/10/16 13:33:50;;;;;;;2.27;1.83;;;;;;;17.13;32.93;98983.38;6917507;28;20301;-79
2023/10/16 13:37:11;;;;;;;2.30;1.83;;;;;;;17.58;31.38;98982.38;6913049;28;20243;-81
2023/10/16 13:40:33;;;;;;;3.40;2.07;;;;;;;17.00;32.83;98989.97;6917875;28;20226;-79
2023/10/16 13:43:55;;;;;;;1.80;1.70;;;;;;;17.85;32.37;98979.84;6917545;28;20302;-80
2023/10/16 13:47:18;;;;;;;2.10;1.97;;;;;;;17.73;32.13;98970.91;6904441;28;20291;-79
2023/10/16 13:50:41;;;;;;;2.70;1.80;;;;;;;18.70;31.54;98954.69;6908590;28;20222;-80
2023/10/16 13:54:11;;;;;;;2.00;1.80;;;;;;;18.69;30.91;98958.50;6918471;28;20215;-80
2023/10/16 13:57:34;;;;;;;2.03;1.77;;;;;;;17.63;32.29;98971.56;6915459;28;20226;-81
2023/10/16 14:00:57;;;;;;;3.23;2.00;;;;;;;16.80;33.10;98973.19;6917557;28;20202;-80
2023/10/16 14:04:21;;;;;;;2.17;1.73;;;;;;;16.56;33.01;98966.13;6918090;28;20346;-80
2023/10/16 14:07:43;;;;;;;1.87;1.77;;;;;;;16.93;32.86;98921.16;6890971;28;20269;-80
2023/10/16 14:11:11;;;;;;;2.20;2.00;;;;;;;17.56;32.24;98964.59;6912506;28;20783;-80
2023/10/16 14:14:33;;;;;;;1.70;1.60;;;;;;;17.30;32.64;98959.75;6916776;28;20206;-81
2023/10/16 14:17:57;;;;;;;3.03;2.00;;;;;;;17.70;33.20;98947.69;6916129;28;20224;-81
2023/10/16 14:21:22;;;;;;;3.90;2.03;;;;;;;18.40;31.11;98945.28;6890204;28;20215;-81
2023/10/16 14:24:43;;;;;;;1.63;1.53;;;;;;;17.74;32.00;98948.03;6915445;28;20582;-81
2023/10/16 14:28:19;;;;;;;1.80;1.70;;;;;;;17.65;32.53;98944.06;6916299;28;20207;-81
2023/10/16 14:31:45;;;;;;;2.10;2.00;;;;;;;17.05;32.41;98904.78;6915266;28;20219;-80
2023/10/16 14:35:08;;;;;;;2.70;2.00;;;;;;;17.40;32.48;98938.16;6915149;28;20834;-81
2023/10/16 14:38:31;;;;;;;2.03;1.87;;;;;;;16.47;34.59;98925.91;6912489;28;20251;-82
2023/10/16 14:41:52;;;;;;;1.97;1.87;;;;;;;16.95;33.32;98942.69;6913936;28;20344;-82
2023/10/16 14:45:15;;;;;;;2.40;1.80;;;;;;;17.01;34.03;98941.72;6914897;28;20771;-81
2023/10/16 14:48:38;;;;;;;2.00;1.63;;;;;;;17.69;32.94;98934.31;6914968;28;20246;-81
2023/10/16 14:51:59;;;;;;;2.80;2.07;;;;;;;17.22;33.37;98927.44;6900277;28;20380;-80
2023/10/16 14:55:22;;;;;;;1.93;1.83;;;;;;;16.14;34.88;98937.41;6915351;28;20250;-81
2023/10/16 14:58:43;;;;;;;3.73;2.40;;;;;;;17.30;33.48;98927.03;6909754;28;20639;-80
2023/10/16 15:02:07;;;;;;;3.23;2.17;;;;;;;17.58;32.97;98937.94;6914973;28;20297;-80
2023/10/16 15:05:29;;;;;;;2.10;1.90;;;;;;;17.49;33.87;98944.84;6915925;28;20237;-80
2023/10/16 15:08:53;;;;;;;2.00;1.90;;;;;;;16.90;33.83;98856.28;6915845;28;20211;-81
2023/10/16 15:12:16;;;;;;;2.03;1.87;;;;;;;17.02;34.60;98954.28;6914954;28;20243;-81
2023/10/16 15:15:38;;;;;;;3.03;2.60;;;;;;;17.96;33.12;98924.38;6904849;28;20373;-81
2023/10/16 15:19:00;;;;;;;2.03;1.90;;;;;;;17.37;33.18;98939.44;6914042;28;20204;-80
2023/10/16 15:22:21;;;;;;;3.67;2.07;;;;;;;17.60;33.78;98933.03;6897916;28;20559;-80
2023/10/16 15:25:45;;;;;;;2.83;2.07;;;;;;;17.67;32.44;98939.16;6905638;28;20319;-81
2023/10/16 15:29:13;;;;;;;2.77;1.90;;;;;;;17.32;33.92;98938.50;6922079;28;20212;-80
2023/10/16 15:32:34;;;;;;;2.47;2.00;;;;;;;17.19;34.80;98946.97;6910220;28;20221;-80
2023/10/16 15:35:56;;;;;;;2.50;2.30;;;;;;;16.74;34.84;98929.75;6911597;28;20818;-81
2023/10/16 15:39:22;;;;;;;2.40;2.20;;;;;;;16.18;34.87;98935.88;6903925;28;20282;-81
2023/10/16 15:42:44;;;;;;;2.50;2.00;;;;;;;16.28;35.46;98944.22;6895987;28;20208;-81
2023/10/16 15:46:25;;;;;;;2.53;2.23;;;;;;;17.26;34.34;98932.16;6898322;28;20246;-81
2023/10/16 15:49:47;;;;;;;2.20;1.83;;;;;;;16.05;35.47;98921.66;6896038;28;20336;-81
2023/10/16 15:53:09;;;;;;;2.30;2.10;;;;;;;16.96;34.50;98938.91;6908125;28;20233;-81
2023/10/16 15:56:31;;;;;;;2.07;1.97;;;;;;;16.94;34.64;98933.72;6898475;28;20229;-80
2023/10/16 15:59:53;;;;;;;2.30;2.10;;;;;;;16.90;34.62;98939.88;6896679;28;20225;-80
2023/10/16 16:03:17;;;;;;;3.23;2.20;;;;;;;16.42;35.48;98940.25;6913454;28;20210;-80
2023/10/16 16:06:38;;;;;;;2.00;1.90;;;;;;;16.68;34.99;98956.03;6911751;28;20222;-80
2023/10/16 16:10:00;;;;;;;3.17;2.33;;;;;;;16.64;34.99;98943.97;6910111;28;20795;-80
2023/10/16 16:13:22;;;;;;;3.67;2.47;;;;;;;16.72;34.63;98950.94;6910426;28;20260;-81
2023/10/16 16:16:44;;;;;;;3.43;2.60;;;;;;;16.50;35.01;98949.91;6914151;28;20263;-80
2023/10/16 16:20:15;;;;;;;4.67;2.77;;;;;;;16.23;35.54;98941.41;6909695;28;20209;-80
2023/10/16 16:23:37;;;;;;;6.87;3.10;;;;;;;16.16;35.70;98942.59;6918107;28;20250;-80
2023/10/16 16:26:58;;;;;;;4.40;2.60;;;;;;;15.86;36.41;98953.56;6908382;28;20362;-81
2023/10/16 16:30:20;;;;;;;5.63;3.00;;;;;;;15.95;36.52;98905.94;6916507;28;20213;-81
2023/10/16 16:33:42;;;;;;;4.27;2.80;;;;;;;16.27;36.13;98958.09;6898843;28;20375;-80
2023/10/16 16:37:05;;;;;;;5.10;3.47;;;;;;;15.67;38.58;98956.63;6904920;28;22121;-80
2023/10/16 16:40:26;;;;;;;2.80;2.30;;;;;;;15.27;38.08;98959.09;6903497;28;20824;-80
2023/10/16 16:43:48;;;;;;;2.73;2.47;;;;;;;14.91;39.29;98956.47;6900080;28;20325;-80
2023/10/16 16:47:09;;;;;;;5.33;3.77;;;;;;;14.92;38.87;98951.88;6905015;28;20263;-79
2023/10/16 16:50:31;;;;;;;12.40;6.70;;;;;;;15.36;38.15;98970.50;6902487;28;20656;-80
2023/10/16 16:53:54;;;;;;;2.60;2.40;;;;;;;15.39;37.53;98968.13;6901038;28;20316;-79
2023/10/16 16:57:16;;;;;;;5.07;2.83;;;;;;;15.24;37.82;98970.44;6918528;28;20232;-79
2023/10/16 17:00:38;;;;;;;3.40;2.93;;;;;;;15.31;37.48;98973.03;6918540;28;20251;-79
2023/10/16 17:03:59;;;;;;;4.13;2.70;;;;;;;15.08;37.89;98968.34;6918182;28;20266;-79
2023/10/16 17:07:21;;;;;;;2.23;2.00;;;;;;;15.16;37.32;98962.59;6918570;28;20271;-80
2023/10/16 17:10:45;;;;;;;5.10;2.40;;;;;;;14.85;37.80;98918.53;6917561;28;20236;-79
2023/10/16 17:14:06;;;;;;;4.57;2.17;;;;;;;14.66;38.17;98920.47;6918077;28;20311;-80
2023/10/16 17:17:28;;;;;;;2.27;2.07;;;;;;;14.76;38.24;98953.31;6918511;28;20324;-79
2023/10/16 17:20:49;;;;;;;3.97;3.57;;;;;;;14.60;38.73;98951.22;6918697;28;20208;-81
2023/10/16 17:24:11;;;;;;;4.67;3.20;;;;;;;15.00;38.34;98946.97;6915626;28;20233;-80
2023/10/16 17:27:34;;;;;;;2.80;2.50;;;;;;;15.40;38.14;98966.25;6915711;28;20779;-80
2023/10/16 17:30:55;;;;;;;2.33;2.10;;;;;;;15.50;37.82;98970.06;6898723;28;20203;-80
2023/10/16 17:34:24;;;;;;;2.33;2.13;;;;;;;15.33;38.26;98969.06;6907825;28;20372;-80
2023/10/16 17:37:45;;;;;;;2.50;2.30;;;;;;;15.07;38.78;98984.88;6900330;28;20222;-80
2023/10/16 17:41:07;;;;;;;2.87;2.47;;;;;;;14.48;39.88;98984.75;6909943;28;20209;-80
2023/10/16 17:44:30;;;;;;;4.43;2.50;;;;;;;14.64;39.24;98974.13;6917273;28;20688;-80
2023/10/16 17:47:51;;;;;;;6.07;3.67;;;;;;;14.89;39.13;98987.59;6915300;28;20225;-80
2023/10/16 17:51:13;;;;;;;4.43;3.87;;;;;;;14.86;39.33;98994.31;6912055;28;20758;-80
2023/10/16 17:54:34;;;;;;;2.67;2.47;;;;;;;15.06;39.94;98985.94;6915495;28;20341;-80
2023/10/16 17:57:56;;;;;;;2.90;2.70;;;;;;;14.95;40.38;98982.09;6916359;28;20273;-80
2023/10/16 18:01:20;;;;;;;4.07;2.53;;;;;;;14.87;41.00;98989.72;6909588;28;20667;-80
2023/10/16 18:04:41;;;;;;;3.10;2.70;;;;;;;14.71;41.83;98990.34;6914817;28;20285;-80
2023/10/16 18:08:04;;;;;;;4.50;2.70;;;;;;;14.69;42.08;98992.47;6899439;28;20326;-81
2023/10/16 18:11:26;;;;;;;3.40;3.10;;;;;;;14.56;42.40;98998.84;6909857;28;20234;-80
2023/10/16 18:14:49;;;;;;;6.37;3.90;;;;;;;14.16;43.86;99000.28;6907588;28;20244;-80
2023/10/16 18:18:12;;;;;;;5.63;4.03;;;;;;;13.32;46.67;99014.47;6912341;28;20658;-80
2023/10/16 18:21:33;;;;;;;5.17;3.70;;;;;;;13.49;46.58;99013.75;6904317;28;20349;-80
2023/10/16 18:24:55;;;;;;;5.20;4.00;;;;;;;13.20;47.35;99010.81;6901493;28;20299;-80
2023/10/16 18:28:17;;;;;;;5.30;4.50;;;;;;;13.33;46.45;99002.63;6900783;28;20251;-80
2023/10/16 18:31:39;;;;;;;4.20;3.10;;;;;;;13.30;47.28;99016.59;6913005;28;20648;-80
2023/10/16 18:35:02;;;;;;;3.57;3.27;;;;;;;13.31;46.76;98997.41;6912246;28;20211;-80
2023/10/16 18:38:24;;;;;;;3.20;2.90;;;;;;;13.09;47.68;99001.50;6914240;28;20306;-81
2023/10/16 18:41:45;;;;;;;4.33;3.50;;;;;;;12.97;48.22;99014.06;6911553;28;20290;-79
2023/10/16 18:45:09;;;;;;;4.73;3.70;;;;;;;12.90;48.76;99017.78;6914348;28;20756;-80
2023/10/16 18:48:31;;;;;;;4.50;2.90;;;;;;;13.18;47.75;99013.75;6917159;28;20621;-81
2023/10/16 18:51:54;;;;;;;2.80;2.60;;;;;;;13.04;48.47;99022.97;6915916;28;20223;-83
2023/10/16 18:55:16;;;;;;;3.43;3.13;;;;;;;12.39;49.95;99019.63;6916379;28;20867;-81
2023/10/16 18:58:39;;;;;;;3.23;2.60;;;;;;;12.57;48.87;98979.22;6917323;28;20712;-81
2023/10/16 19:02:00;;;;;;;3.17;2.93;;;;;;;12.81;49.25;99028.03;6910186;28;20735;-80
2023/10/16 19:05:22;;;;;;;3.67;3.23;;;;;;;12.44;50.10;99011.69;6923936;28;20234;-80
2023/10/16 19:08:45;;;;;;;5.60;3.20;;;;;;;12.59;49.35;99015.84;6919451;28;20215;-80
2023/10/16 19:12:08;;;;;;;6.07;4.13;;;;;;;12.42;50.75;99030.84;6917543;28;20694;-81
2023/10/16 19:15:31;;;;;;;3.70;3.30;;;;;;;12.05;51.40;99009.06;6916305;28;21323;-81
2023/10/16 19:18:53;;;;;;;4.07;3.30;;;;;;;12.41;50.60;99031.91;6915743;28;20236;-81
2023/10/16 19:22:14;;;;;;;3.90;3.00;;;;;;;12.11;51.27;99037.97;6920302;28;20211;-82
2023/10/16 19:25:37;;;;;;;3.73;3.43;;;;;;;11.76;52.34;99031.13;6918701;28;20235;-81
2023/10/16 19:29:01;;;;;;;5.83;3.87;;;;;;;12.15;51.88;99044.63;6904662;28;20261;-81
2023/10/16 19:32:23;;;;;;;7.10;5.27;;;;;;;12.16;51.70;99043.59;6918683;28;20234;-81
2023/10/16 19:35:44;;;;;;;6.93;4.17;;;;;;;12.19;51.07;99038.59;6913122;28;20290;-80
2023/10/16 19:39:06;;;;;;;5.67;3.53;;;;;;;12.12;50.89;99026.97;6918743;28;20689;-83
2023/10/16 19:42:29;;;;;;;4.27;3.40;;;;;;;12.31;51.13;99046.88;6918206;28;20202;-80
2023/10/16 19:45:52;;;;;;;5.97;3.70;;;;;;;12.42;50.20;99033.56;6917736;28;20315;-81
2023/10/16 19:49:15;;;;;;;5.93;3.70;;;;;;;12.23;49.91;99022.78;6918991;28;20275;-80
2023/10/16 19:52:38;;;;;;;4.60;4.20;;;;;;;11.97;50.73;99012.81;6906971;28;20232;-81
2023/10/16 19:56:00;;;;;;;4.93;3.70;;;;;;;12.10;50.86;99037.13;6898136;28;20634;-81
2023/10/16 19:59:23;;;;;;;6.03;4.00;;;;;;;11.88;51.27;99029.44;6915071;28;20291;-81
2023/10/16 20:02:46;;;;;;;4.20;3.77;;;;;;;11.97;51.53;99055.22;6903342;28;20204;-81
2023/10/16 20:06:11;;;;;;;5.97;4.40;;;;;;;11.73;52.06;99016.16;6914933;28;20814;-81
2023/10/16 20:09:34;;;;;;;6.10;4.10;;;;;;;11.68;52.79;99061.84;6914605;28;20211;-81
2023/10/16 20:12:56;;;;;;;4.37;2.97;;;;;;;11.87;52.08;99077.25;6911627;28;20226;-81
2023/10/16 20:16:20;;;;;;;3.70;3.27;;;;;;;11.75;52.08;99072.69;6901957;28;20597;-81
2023/10/16 20:19:43;;;;;;;3.50;3.20;;;;;;;11.67;52.68;99073.69;6911050;28;20207;-81
2023/10/16 20:23:09;;;;;;;4.27;3.40;;;;;;;11.58;52.44;99064.09;6911980;28;20207;-81
2023/10/16 20:26:31;;;;;;;4.87;3.77;;;;;;;11.54;52.57;99065.53;6913663;28;20240;-82
2023/10/16 20:29:53;;;;;;;3.97;3.50;;;;;;;11.54;52.54;99067.41;6915141;28;20291;-82
2023/10/16 20:33:16;;;;;;;5.13;3.77;;;;;;;11.40;53.27;99061.13;6923537;28;20293;-80
2023/10/16 20:36:39;;;;;;;4.57;3.93;;;;;;;11.33;53.10;99052.19;6920146;28;20594;-80
2023/10/16 20:40:03;;;;;;;7.93;4.20;;;;;;;11.00;53.13;99001.88;6923011;28;20207;-82
2023/10/16 20:43:27;;;;;;;4.93;3.83;;;;;;;11.14;52.84;99063.75;6926638;28;20294;-81
2023/10/16 20:46:52;;;;;;;6.27;4.00;;;;;;;11.28;52.92;99062.75;6927217;28;20226;-81
2023/10/16 20:50:20;;;;;;;5.27;3.30;;;;;;;11.34;52.46;99053.03;6910156;28;20597;-81
2023/10/16 20:53:42;;;;;;;4.90;3.60;;;;;;;11.32;52.96;99061.34;6912063;28;20230;-81
2023/10/16 20:57:03;;;;;;;3.77;3.40;;;;;;;11.11;53.15;99066.03;6900250;28;20231;-81
2023/10/16 21:00:28;;;;;;;5.23;3.40;;;;;;;11.06;53.80;99055.88;6900790;28;20217;-81
2023/10/16 21:03:50;;;;;;;5.37;4.10;;;;;;;10.98;53.53;99050.63;6899511;28;20235;-81
2023/10/16 21:07:12;;;;;;;3.80;3.50;;;;;;;10.91;53.66;99052.47;6899780;28;20224;-80
2023/10/16 21:10:35;;;;;;;4.07;3.60;;;;;;;10.43;54.02;99058.00;6894318;28;20220;-81
2023/10/16 21:13:57;;;;;;;3.93;3.57;;;;;;;9.72;56.79;99063.66;6891821;28;20228;-80
2023/10/16 21:17:18;;;;;;;3.90;3.60;;;;;;;9.85;57.06;99069.13;6890432;28;20228;-80
2023/10/16 21:20:40;;;;;;;8.40;3.90;;;;;;;9.67;57.17;99063.38;6889459;28;20212;-80
2023/10/16 21:24:03;;;;;;;5.17;4.23;;;;;;;9.24;58.67;99072.47;6888962;28;20258;-81
2023/10/16 21:27:24;;;;;;;4.37;3.70;;;;;;;9.34;58.04;99055.00;6898952;28;20713;-80
2023/10/16 21:31:08;;;;;;;3.97;3.57;;;;;;;9.62;57.56;99053.22;6919419;28;20297;-81
2023/10/16 21:34:33;;;;;;;4.27;3.87;;;;;;;9.67;56.40;99004.16;6921519;28;20229;-81
2023/10/16 22:00:38;;;;;;;4.13;3.77;;;;;;;9.30;55.67;98961.41;6811039;29;20185;-80
2023/10/16 22:04:05;;;;;;;3.70;3.40;;;;;;;9.43;55.55;99016.19;6810442;29;20234;-81